Time;durP1;ratioP1;P1;durP2;ratioP2;P2;SDS_P1;SDS_P2;PMS_P1;PMS_P2;Temp;Humidity;BMP_temperature;BMP_pressure;BME280_temperature;BME280_humidity;BME280_pressure;Samples;Min_cycle;Max_cycle;Signal;HPM_P1;HPM_P2
2022/11/19 00:01:20;;;;;;;4.60;2.60;;;;;;;;;;4970287;28;20421;-91
2022/11/19 00:03:47;;;;;;;8.15;3.92;;;;;;;;;;4987078;28;20556;-91
2022/11/19 00:06:14;;;;;;;7.68;3.75;;;;;;;;;;4971664;28;20402;-91
2022/11/19 00:08:40;;;;;;;8.68;2.92;;;;;;;;;;5011354;28;20027;-88
2022/11/19 00:11:11;;;;;;;6.85;3.85;;;;;;;;;;5006504;28;20036;-90
2022/11/19 00:13:40;;;;;;;5.97;3.38;;;;;;;;;;5007652;28;20297;-89
2022/11/19 00:16:08;;;;;;;6.07;2.75;;;;;;;;;;5005630;28;20509;-89
2022/11/19 00:18:34;;;;;;;8.20;3.20;;;;;;;;;;5010974;28;21761;-90
2022/11/19 00:21:07;;;;;;;6.65;3.83;;;;;;;;;;5006518;28;20029;-92
2022/11/19 00:23:40;;;;;;;6.65;3.38;;;;;;;;;;5007189;28;20513;-90
2022/11/19 00:26:13;;;;;;;6.53;3.28;;;;;;;;;;4992717;28;20064;-90
2022/11/19 00:28:39;;;;;;;9.10;4.15;;;;;;;;;;4986614;28;20061;-89
2022/11/19 00:31:07;;;;;;;7.35;3.60;;;;;;;;;;4991621;28;20557;-90
2022/11/19 00:33:33;;;;;;;6.75;3.40;;;;;;;;;;5012240;28;20366;-90
2022/11/19 00:36:00;;;;;;;4.15;2.78;;;;;;;;;;5009092;28;20092;-91
2022/11/19 00:38:26;;;;;;;10.90;4.20;;;;;;;;;;4992376;28;20053;-90
2022/11/19 00:40:59;;;;;;;6.43;3.25;;;;;;;;;;5011699;28;20041;-90
2022/11/19 00:46:10;;;;;;;8.73;4.22;;;;;;;;;;5022421;28;20036;-89
2022/11/19 00:48:37;;;;;;;6.90;3.47;;;;;;;;;;4993657;28;20033;-89
2022/11/19 00:51:06;;;;;;;5.80;3.00;;;;;;;;;;5009590;28;20516;-90
2022/11/19 00:53:32;;;;;;;6.30;3.17;;;;;;;;;;4995678;28;20041;-91
2022/11/19 00:56:02;;;;;;;6.75;3.90;;;;;;;;;;4986018;28;20044;-90
2022/11/19 00:58:28;;;;;;;6.82;3.75;;;;;;;;;;5008864;28;20551;-91
2022/11/19 01:00:55;;;;;;;7.72;3.40;;;;;;;;;;4993404;28;20555;-90
2022/11/19 01:03:21;;;;;;;7.65;3.70;;;;;;;;;;5010367;28;20025;-90
2022/11/19 01:05:47;;;;;;;8.30;2.75;;;;;;;;;;4992234;28;20057;-90
2022/11/19 01:08:13;;;;;;;5.78;2.92;;;;;;;;;;5004989;28;20429;-89
2022/11/19 01:10:39;;;;;;;7.15;4.07;;;;;;;;;;4992448;28;20043;-89
2022/11/19 01:15:50;;;;;;;8.43;3.88;;;;;;;;;;5017246;28;20093;-90
2022/11/19 01:18:17;;;;;;;9.23;3.97;;;;;;;;;;5005307;28;20033;-91
2022/11/19 01:20:43;;;;;;;8.23;3.78;;;;;;;;;;5020328;28;20112;-90
2022/11/19 01:23:09;;;;;;;10.18;4.15;;;;;;;;;;5006615;28;20037;-90
2022/11/19 01:25:35;;;;;;;6.82;2.97;;;;;;;;;;4996686;28;20040;-90
2022/11/19 01:28:02;;;;;;;9.02;4.22;;;;;;;;;;4999370;28;20049;-90
2022/11/19 01:30:28;;;;;;;7.68;4.07;;;;;;;;;;5005701;28;20036;-91
2022/11/19 01:32:54;;;;;;;9.02;3.90;;;;;;;;;;5009808;28;20124;-89
2022/11/19 01:35:20;;;;;;;6.82;2.83;;;;;;;;;;5008300;28;20136;-91
2022/11/19 01:37:46;;;;;;;7.40;3.15;;;;;;;;;;4991929;28;20033;-91
2022/11/19 01:40:13;;;;;;;6.53;3.20;;;;;;;;;;4990077;28;20121;-90
2022/11/19 01:42:48;;;;;;;5.45;2.65;;;;;;;;;;4997163;28;20694;-89
2022/11/19 01:45:33;;;;;;;7.82;3.60;;;;;;;;;;5008987;28;20026;-90
2022/11/19 01:48:04;;;;;;;6.95;3.70;;;;;;;;;;5003713;28;20026;-92
2022/11/19 01:50:32;;;;;;;7.10;3.55;;;;;;;;;;5007036;28;20085;-90
2022/11/19 01:52:58;;;;;;;9.15;4.15;;;;;;;;;;5008081;28;20046;-90
2022/11/19 01:55:27;;;;;;;10.40;3.97;;;;;;;;;;5007639;28;20032;-93
2022/11/19 01:57:55;;;;;;;8.02;3.42;;;;;;;;;;5005008;28;20050;-90
2022/11/19 02:00:21;;;;;;;7.07;3.92;;;;;;;;;;5008048;28;20050;-91
2022/11/19 02:02:47;;;;;;;12.57;4.50;;;;;;;;;;5011683;28;20368;-88
2022/11/19 02:05:13;;;;;;;7.10;3.80;;;;;;;;;;5008165;28;20034;-91
2022/11/19 02:07:42;;;;;;;8.65;4.07;;;;;;;;;;4992540;28;20504;-90
2022/11/19 02:10:08;;;;;;;9.25;3.83;;;;;;;;;;5005534;28;20034;-90
2022/11/19 02:12:34;;;;;;;6.30;3.15;;;;;;;;;;4991191;28;20049;-90
2022/11/19 02:15:01;;;;;;;10.68;3.92;;;;;;;;;;4997550;28;20042;-91
2022/11/19 02:17:38;;;;;;;9.70;4.53;;;;;;;;;;4988673;28;20021;-91
2022/11/19 02:20:10;;;;;;;7.63;4.35;;;;;;;;;;4986312;28;20461;-91
2022/11/19 02:22:55;;;;;;;9.75;4.60;;;;;;;;;;4992892;28;20069;-89
2022/11/19 02:25:47;;;;;;;10.38;4.47;;;;;;;;;;4986614;28;20486;-90
2022/11/19 02:28:30;;;;;;;7.40;3.60;;;;;;;;;;4987945;28;20052;-91
2022/11/19 02:31:03;;;;;;;8.15;4.18;;;;;;;;;;4984236;28;20040;-89
2022/11/19 02:33:35;;;;;;;8.93;4.53;;;;;;;;;;4988926;28;20042;-90
2022/11/19 02:36:01;;;;;;;7.68;4.18;;;;;;;;;;4988561;28;20060;-91
2022/11/19 02:38:32;;;;;;;13.05;5.53;;;;;;;;;;4986514;28;20466;-89
2022/11/19 02:41:32;;;;;;;10.18;4.35;;;;;;;;;;4991085;28;20045;-91
2022/11/19 02:44:57;;;;;;;12.95;5.32;;;;;;;;;;5001928;28;20137;-91
2022/11/19 02:46:39;;;;;;;10.30;4.85;;;;;;;;;;4999817;28;20029;-90
2022/11/19 02:49:06;;;;;;;12.52;5.65;;;;;;;;;;4969200;28;20029;-90
2022/11/19 02:51:34;;;;;;;7.45;5.03;;;;;;;;;;4983421;28;20499;-90
2022/11/19 02:54:00;;;;;;;9.63;4.32;;;;;;;;;;4970568;28;20484;-91
2022/11/19 02:56:45;;;;;;;5.70;3.03;;;;;;;;;;4985954;28;20037;-92
2022/11/19 03:04:57;;;;;;;8.80;3.63;;;;;;;;;;5003689;28;20093;-92
2022/11/19 03:07:23;;;;;;;9.57;4.07;;;;;;;;;;4987713;28;20934;-90
2022/11/19 03:12:53;;;;;;;5.97;3.42;;;;;;;;;;4981833;28;20033;-90
2022/11/19 03:18:21;;;;;;;11.63;3.85;;;;;;;;;;5000501;28;20071;-90
2022/11/19 03:21:03;;;;;;;14.25;5.00;;;;;;;;;;4987527;28;20067;-90
2022/11/19 03:23:34;;;;;;;7.05;3.40;;;;;;;;;;4990533;28;20500;-90
2022/11/19 03:26:11;;;;;;;12.65;4.13;;;;;;;;;;4985442;28;20026;-90
2022/11/19 03:28:38;;;;;;;6.13;3.72;;;;;;;;;;4986112;28;20027;-89
2022/11/19 03:31:05;;;;;;;17.05;4.07;;;;;;;;;;4988561;28;20037;-89
2022/11/19 03:33:33;;;;;;;10.25;4.07;;;;;;;;;;4986941;28;20042;-90
2022/11/19 03:36:08;;;;;;;7.68;3.67;;;;;;;;;;4986177;28;20405;-90
2022/11/19 03:38:38;;;;;;;6.97;2.80;;;;;;;;;;4987062;28;20053;-91
2022/11/19 03:41:05;;;;;;;10.27;4.20;;;;;;;;;;5003193;28;20093;-92
2022/11/19 03:43:37;;;;;;;8.93;4.28;;;;;;;;;;4984772;28;20065;-90
2022/11/19 03:46:05;;;;;;;7.90;3.28;;;;;;;;;;4987625;28;20390;-91
2022/11/19 03:48:31;;;;;;;9.13;4.03;;;;;;;;;;4987447;28;20034;-90
2022/11/19 03:51:01;;;;;;;12.45;5.18;;;;;;;;;;4984394;28;20038;-89
2022/11/19 03:53:27;;;;;;;8.63;4.35;;;;;;;;;;4984995;28;20033;-90
2022/11/19 03:56:02;;;;;;;8.13;3.60;;;;;;;;;;4973185;28;20060;-90
2022/11/19 03:58:33;;;;;;;7.93;3.70;;;;;;;;;;5005003;28;20065;-90
2022/11/19 04:00:59;;;;;;;9.10;4.70;;;;;;;;;;4984801;28;20065;-90
2022/11/19 04:03:26;;;;;;;13.13;4.85;;;;;;;;;;4970221;28;20041;-89
2022/11/19 04:05:52;;;;;;;8.38;4.05;;;;;;;;;;4973508;28;20545;-89
2022/11/19 04:08:18;;;;;;;8.25;4.13;;;;;;;;;;4971593;28;20030;-92
2022/11/19 04:10:44;;;;;;;13.73;4.00;;;;;;;;;;4977555;28;20155;-89
2022/11/19 04:13:10;;;;;;;6.57;3.75;;;;;;;;;;4987579;28;20092;-91
2022/11/19 04:15:36;;;;;;;8.57;4.68;;;;;;;;;;4988100;28;20203;-89
2022/11/19 04:18:05;;;;;;;10.05;4.88;;;;;;;;;;4988069;28;20022;-92
2022/11/19 04:20:31;;;;;;;12.30;4.88;;;;;;;;;;4972891;28;20505;-89
2022/11/19 04:22:57;;;;;;;11.00;3.63;;;;;;;;;;4978499;28;20493;-89
2022/11/19 04:25:23;;;;;;;8.10;3.92;;;;;;;;;;4965066;28;20050;-90
2022/11/19 04:27:49;;;;;;;15.85;4.43;;;;;;;;;;4989204;28;20454;-90
2022/11/19 04:30:15;;;;;;;8.02;4.00;;;;;;;;;;4963041;28;20161;-91
2022/11/19 04:32:41;;;;;;;12.73;5.47;;;;;;;;;;4966602;28;20064;-91
2022/11/19 04:35:08;;;;;;;11.32;4.63;;;;;;;;;;4987452;28;20038;-92
2022/11/19 04:37:34;;;;;;;13.50;5.82;;;;;;;;;;4988810;28;20120;-90
2022/11/19 04:40:00;;;;;;;12.13;5.93;;;;;;;;;;4974439;28;20038;-92
2022/11/19 04:42:26;;;;;;;8.65;3.60;;;;;;;;;;4990048;28;20454;-91
2022/11/19 04:44:52;;;;;;;9.35;3.42;;;;;;;;;;4972413;28;20117;-89
2022/11/19 04:47:18;;;;;;;10.68;4.72;;;;;;;;;;4977506;28;20034;-91
2022/11/19 04:49:44;;;;;;;12.55;4.97;;;;;;;;;;4993354;28;20018;-90
2022/11/19 04:52:10;;;;;;;7.95;4.20;;;;;;;;;;4971211;28;20045;-91
2022/11/19 04:54:36;;;;;;;13.18;5.20;;;;;;;;;;4986510;28;20401;-91
2022/11/19 04:57:02;;;;;;;10.35;4.80;;;;;;;;;;4986792;28;20449;-91
2022/11/19 04:59:31;;;;;;;10.38;4.60;;;;;;;;;;4991713;28;20060;-91
2022/11/19 05:01:57;;;;;;;7.60;3.63;;;;;;;;;;4971587;28;20042;-90
2022/11/19 05:04:23;;;;;;;11.45;5.88;;;;;;;;;;4988463;28;20030;-90
2022/11/19 05:06:49;;;;;;;11.20;5.10;;;;;;;;;;4970604;28;20177;-89
2022/11/19 05:09:15;;;;;;;10.68;4.78;;;;;;;;;;4970232;28;20113;-88
2022/11/19 05:11:41;;;;;;;9.50;3.90;;;;;;;;;;4986739;28;20128;-89
2022/11/19 05:14:07;;;;;;;11.43;4.70;;;;;;;;;;4972888;28;20105;-91
2022/11/19 05:16:33;;;;;;;10.35;4.22;;;;;;;;;;4989501;28;20076;-89
2022/11/19 05:18:59;;;;;;;14.00;4.57;;;;;;;;;;4974892;28;20037;-91
2022/11/19 05:21:26;;;;;;;9.65;4.57;;;;;;;;;;4973630;28;20061;-90
2022/11/19 05:23:52;;;;;;;8.75;3.95;;;;;;;;;;4972016;28;20474;-89
2022/11/19 05:37:21;;;;;;;13.18;4.28;;;;;;;;;;5911424;22;8245731;-91
2022/11/19 05:39:47;;;;;;;17.67;5.05;;;;;;;;;;6226103;23;20016;-92
2022/11/19 05:42:13;;;;;;;10.32;4.65;;;;;;;;;;6200740;23;20170;-91
2022/11/19 05:44:39;;;;;;;10.57;5.32;;;;;;;;;;6202311;23;20012;-92
2022/11/19 05:47:05;;;;;;;16.08;5.60;;;;;;;;;;6228398;23;20066;-91
2022/11/19 05:49:31;;;;;;;8.60;4.20;;;;;;;;;;6230164;23;20008;-91
2022/11/19 05:51:57;;;;;;;13.88;4.80;;;;;;;;;;6205371;23;20061;-92
2022/11/19 05:54:23;;;;;;;12.20;5.22;;;;;;;;;;6231641;23;20068;-93
2022/11/19 05:56:49;;;;;;;13.65;6.50;;;;;;;;;;6208543;23;20014;-92
2022/11/19 05:59:15;;;;;;;14.73;5.10;;;;;;;;;;6211477;23;20036;-91
2022/11/19 06:01:41;;;;;;;11.70;5.05;;;;;;;;;;6208550;23;20012;-91
2022/11/19 06:04:08;;;;;;;11.88;5.85;;;;;;;;;;6208079;23;20015;-92
2022/11/19 06:06:34;;;;;;;10.45;4.82;;;;;;;;;;6203119;23;20011;-91
2022/11/19 06:09:00;;;;;;;10.60;5.60;;;;;;;;;;6203547;23;20042;-92
2022/11/19 06:14:10;;;;;;;9.13;4.55;;;;;;;;;;6230589;23;20047;-92
2022/11/19 06:16:36;;;;;;;7.40;3.58;;;;;;;;;;6201325;23;20016;-91
2022/11/19 06:19:02;;;;;;;11.57;4.95;;;;;;;;;;6201353;23;20012;-92
2022/11/19 06:21:28;;;;;;;10.73;4.32;;;;;;;;;;6225307;23;20486;-91
2022/11/19 06:23:55;;;;;;;10.65;4.95;;;;;;;;;;6200170;23;20016;-92
2022/11/19 06:26:24;;;;;;;10.52;4.32;;;;;;;;;;6200549;23;20015;-92
2022/11/19 06:28:51;;;;;;;13.52;4.53;;;;;;;;;;6200945;23;20435;-92
2022/11/19 06:31:17;;;;;;;10.55;4.75;;;;;;;;;;6226339;23;20036;-92
2022/11/19 06:33:43;;;;;;;9.30;5.45;;;;;;;;;;6225313;23;20166;-92
2022/11/19 06:36:10;;;;;;;12.20;4.57;;;;;;;;;;6225546;22;20051;-92
2022/11/19 06:38:36;;;;;;;8.00;4.20;;;;;;;;;;6218677;23;20458;-92
2022/11/19 06:41:02;;;;;;;11.23;4.40;;;;;;;;;;6219609;23;20473;-91
2022/11/19 06:43:28;;;;;;;10.27;5.03;;;;;;;;;;6194630;23;20047;-92
2022/11/19 06:45:54;;;;;;;8.77;4.43;;;;;;;;;;6194400;23;20027;-91
2022/11/19 06:48:20;;;;;;;9.63;4.68;;;;;;;;;;6195247;23;20464;-92
2022/11/19 06:50:46;;;;;;;11.63;5.43;;;;;;;;;;6218621;23;20003;-92
2022/11/19 06:53:12;;;;;;;9.15;4.25;;;;;;;;;;6217788;23;20095;-92
2022/11/19 06:55:38;;;;;;;11.65;4.97;;;;;;;;;;6192841;23;20035;-91
2022/11/19 06:58:05;;;;;;;13.70;5.53;;;;;;;;;;6191976;23;20395;-92
2022/11/19 07:00:31;;;;;;;7.88;3.47;;;;;;;;;;6194314;23;20012;-93
2022/11/19 07:02:58;;;;;;;12.38;4.63;;;;;;;;;;6192993;23;20020;-92
2022/11/19 07:05:24;;;;;;;9.68;4.32;;;;;;;;;;6218927;23;20019;-92
2022/11/19 07:07:50;;;;;;;10.85;4.72;;;;;;;;;;6218568;23;20015;-92
2022/11/19 07:10:17;;;;;;;9.10;4.10;;;;;;;;;;6219204;23;20525;-92
2022/11/19 07:12:43;;;;;;;10.52;4.88;;;;;;;;;;6192779;23;20008;-92
2022/11/19 07:15:09;;;;;;;12.05;5.10;;;;;;;;;;6219001;23;20023;-92
2022/11/19 07:17:36;;;;;;;12.43;5.40;;;;;;;;;;6194059;23;20020;-92
2022/11/19 07:20:03;;;;;;;12.52;4.32;;;;;;;;;;6219382;23;20436;-91
2022/11/19 07:22:29;;;;;;;8.30;4.72;;;;;;;;;;6217350;23;20009;-92
2022/11/19 07:24:55;;;;;;;11.52;5.82;;;;;;;;;;6218870;23;20012;-90
2022/11/19 07:27:21;;;;;;;11.63;5.07;;;;;;;;;;6192724;23;20495;-92
2022/11/19 07:29:47;;;;;;;12.35;5.82;;;;;;;;;;6218121;23;20064;-92
2022/11/19 07:32:13;;;;;;;11.18;5.45;;;;;;;;;;6193099;23;20036;-92
2022/11/19 07:34:39;;;;;;;16.20;5.40;;;;;;;;;;6193044;23;20051;-92
2022/11/19 07:37:05;;;;;;;12.32;5.40;;;;;;;;;;6193645;23;20440;-92
2022/11/19 07:39:31;;;;;;;12.27;5.55;;;;;;;;;;6192975;23;20012;-91
2022/11/19 07:44:42;;;;;;;10.45;4.95;;;;;;;;;;6222799;23;20027;-92
2022/11/19 07:47:08;;;;;;;10.30;5.18;;;;;;;;;;6218146;23;20515;-92
2022/11/19 07:49:34;;;;;;;12.50;6.13;;;;;;;;;;6194022;23;20031;-92
2022/11/19 07:52:00;;;;;;;9.00;4.28;;;;;;;;;;6192667;23;20008;-92
2022/11/19 07:54:26;;;;;;;12.57;5.90;;;;;;;;;;6218060;23;20055;-92
2022/11/19 07:56:55;;;;;;;9.70;4.55;;;;;;;;;;6218245;23;20590;-92
2022/11/19 07:59:21;;;;;;;20.35;4.68;;;;;;;;;;6196532;23;20024;-91
2022/11/19 08:01:47;;;;;;;8.10;4.22;;;;;;;;;;6194081;23;20015;-92
2022/11/19 08:04:13;;;;;;;9.15;4.75;;;;;;;;;;6195654;23;20008;-91
2022/11/19 08:06:39;;;;;;;14.43;4.88;;;;;;;;;;6193937;23;20162;-92
2022/11/19 08:09:06;;;;;;;8.90;4.65;;;;;;;;;;6218624;23;20004;-92
2022/11/19 08:11:32;;;;;;;6.60;3.22;;;;;;;;;;6218762;23;20004;-92
2022/11/19 08:14:00;;;;;;;6.28;3.97;;;;;;;;;;6218879;23;20372;-92
2022/11/19 08:19:12;;;;;;;8.15;4.22;;;;;;;;;;6222572;23;20498;-91
2022/11/19 08:21:42;;;;;;;7.90;4.60;;;;;;;;;;6219624;23;20364;-92
2022/11/19 08:24:09;;;;;;;8.60;7.70;;;;;;;;;;6244839;23;20007;-91
2022/11/19 08:26:36;;;;;;;8.02;4.22;;;;;;;;;;6216827;23;20008;-92
2022/11/19 08:29:02;;;;;;;13.57;5.40;;;;;;;;;;6218321;23;20067;-92
2022/11/19 08:31:28;;;;;;;11.93;5.22;;;;;;;;;;6192648;23;20012;-91
2022/11/19 08:33:54;;;;;;;10.63;4.85;;;;;;;;;;6193896;23;20010;-91
2022/11/19 08:36:20;;;;;;;11.50;3.97;;;;;;;;;;6193121;23;20353;-92
2022/11/19 08:38:46;;;;;;;13.10;5.93;;;;;;;;;;6218445;23;20062;-91
2022/11/19 08:44:00;;;;;;;11.35;5.43;;;;;;;;;;6222746;23;20068;-92
2022/11/19 08:46:26;;;;;;;9.63;5.60;;;;;;;;;;6218018;23;20034;-91
2022/11/19 08:48:52;;;;;;;20.20;6.97;;;;;;;;;;6193856;23;20008;-92
2022/11/19 08:51:18;;;;;;;13.15;5.18;;;;;;;;;;6217241;23;20020;-92
2022/11/19 08:53:44;;;;;;;17.20;6.68;;;;;;;;;;6192362;23;20340;-92
2022/11/19 08:56:10;;;;;;;11.25;5.88;;;;;;;;;;6216811;23;20452;-92
2022/11/19 08:58:36;;;;;;;12.35;5.32;;;;;;;;;;6194361;23;20459;-91
2022/11/19 09:01:10;;;;;;;13.07;5.60;;;;;;;;;;6193157;23;20432;-92
2022/11/19 09:03:36;;;;;;;13.90;6.72;;;;;;;;;;6245972;23;20550;-91
2022/11/19 09:06:02;;;;;;;11.82;5.65;;;;;;;;;;6217974;23;20046;-92
2022/11/19 09:08:28;;;;;;;12.50;5.93;;;;;;;;;;6195150;23;20403;-92
2022/11/19 09:10:54;;;;;;;12.80;5.50;;;;;;;;;;6194373;23;20093;-91
2022/11/19 09:13:20;;;;;;;12.93;5.50;;;;;;;;;;6196040;23;20361;-92
2022/11/19 09:15:53;;;;;;;15.20;6.28;;;;;;;;;;6198465;23;20031;-91
2022/11/19 09:18:19;;;;;;;10.48;6.28;;;;;;;;;;6224826;23;20019;-93
2022/11/19 09:20:45;;;;;;;13.70;6.45;;;;;;;;;;6198667;23;20449;-91
2022/11/19 09:23:11;;;;;;;13.52;6.65;;;;;;;;;;6199235;23;20014;-92
2022/11/19 09:25:37;;;;;;;12.85;5.00;;;;;;;;;;6195793;23;20008;-90
2022/11/19 09:28:03;;;;;;;16.52;6.43;;;;;;;;;;6193640;23;20011;-92
2022/11/19 09:30:29;;;;;;;11.43;5.40;;;;;;;;;;6193826;23;20096;-92
2022/11/19 09:32:55;;;;;;;11.38;5.47;;;;;;;;;;6193265;23;20420;-91
2022/11/19 09:35:21;;;;;;;10.82;5.38;;;;;;;;;;6194640;23;20015;-92
2022/11/19 09:37:48;;;;;;;12.00;5.50;;;;;;;;;;6193942;23;20020;-92
2022/11/19 09:40:19;;;;;;;12.85;5.78;;;;;;;;;;6195343;23;20085;-92
2022/11/19 09:43:05;;;;;;;15.07;6.40;;;;;;;;;;6217746;23;20066;-92
2022/11/19 09:45:34;;;;;;;12.25;6.28;;;;;;;;;;6158506;23;20008;-92
2022/11/19 09:48:06;;;;;;;17.60;7.28;;;;;;;;;;6219570;23;20011;-92
2022/11/19 09:50:36;;;;;;;11.05;5.75;;;;;;;;;;6218647;23;20015;-93
2022/11/19 09:53:10;;;;;;;15.52;6.40;;;;;;;;;;6218740;23;20012;-93
2022/11/19 09:55:42;;;;;;;9.02;4.60;;;;;;;;;;6216852;23;20005;-93
2022/11/19 09:58:15;;;;;;;12.30;5.30;;;;;;;;;;6217946;23;20009;-93
2022/11/19 10:00:43;;;;;;;10.65;5.05;;;;;;;;;;6220170;23;20416;-93
2022/11/19 10:03:14;;;;;;;8.63;4.45;;;;;;;;;;6218449;23;20500;-93
2022/11/19 10:05:40;;;;;;;7.88;4.72;;;;;;;;;;6220767;23;20004;-93
2022/11/19 10:08:16;;;;;;;8.43;4.28;;;;;;;;;;6219245;23;20368;-92
2022/11/19 10:10:50;;;;;;;8.27;4.75;;;;;;;;;;6219053;23;20456;-93
2022/11/19 10:13:24;;;;;;;7.00;4.35;;;;;;;;;;6221016;23;20000;-92
2022/11/19 10:15:55;;;;;;;8.38;4.55;;;;;;;;;;6221056;23;20012;-93
2022/11/19 10:18:43;;;;;;;9.40;5.15;;;;;;;;;;6222262;23;20004;-93
2022/11/19 10:21:38;;;;;;;7.30;4.32;;;;;;;;;;6221616;23;20042;-93
2022/11/19 10:24:23;;;;;;;7.10;5.05;;;;;;;;;;6113614;23;20013;-93
2022/11/19 10:26:57;;;;;;;9.32;4.55;;;;;;;;;;6219823;23;20012;-93
2022/11/19 10:29:26;;;;;;;11.00;5.28;;;;;;;;;;6222922;23;20077;-93
2022/11/19 10:31:53;;;;;;;10.43;5.18;;;;;;;;;;6222029;23;20062;-93
2022/11/19 10:34:19;;;;;;;9.60;5.68;;;;;;;;;;6196587;23;20008;-94
2022/11/19 10:36:47;;;;;;;9.88;5.65;;;;;;;;;;6222389;22;20433;-94
2022/11/19 10:39:22;;;;;;;9.07;5.43;;;;;;;;;;6220978;23;20081;-94
2022/11/19 10:41:53;;;;;;;11.38;5.63;;;;;;;;;;6220599;23;20031;-93
2022/11/19 10:44:36;;;;;;;7.93;4.82;;;;;;;;;;6221341;23;20005;-93
2022/11/19 10:47:22;;;;;;;6.40;5.03;;;;;;;;;;6221049;23;20079;-93
2022/11/19 10:49:55;;;;;;;7.68;5.40;;;;;;;;;;6220873;23;20014;-94
2022/11/19 10:52:22;;;;;;;9.35;4.60;;;;;;;;;;6196545;23;20091;-93
2022/11/19 10:54:50;;;;;;;9.23;5.57;;;;;;;;;;6220894;23;20432;-94
2022/11/19 10:57:18;;;;;;;10.77;5.18;;;;;;;;;;6221273;23;20008;-94
2022/11/19 10:59:46;;;;;;;9.45;5.05;;;;;;;;;;6221624;23;20012;-92
2022/11/19 11:02:18;;;;;;;8.73;5.20;;;;;;;;;;6222199;23;20066;-93
2022/11/19 11:05:20;;;;;;;7.93;5.20;;;;;;;;;;6222053;23;20589;-94
2022/11/19 11:07:56;;;;;;;9.30;5.53;;;;;;;;;;6094700;23;20409;-95
2022/11/19 11:10:31;;;;;;;7.60;5.28;;;;;;;;;;6206050;23;20082;-94
2022/11/19 11:15:51;;;;;;;7.13;5.03;;;;;;;;;;6248830;23;20121;-94
2022/11/19 11:18:26;;;;;;;8.18;5.43;;;;;;;;;;6221730;23;20012;-93
2022/11/19 11:20:52;;;;;;;8.93;4.95;;;;;;;;;;6220671;23;20087;-94
2022/11/19 11:23:20;;;;;;;7.13;4.80;;;;;;;;;;6220478;23;20008;-94
2022/11/19 11:26:06;;;;;;;8.13;5.22;;;;;;;;;;6219840;23;20008;-95
2022/11/19 11:28:33;;;;;;;6.53;4.82;;;;;;;;;;6248737;23;20114;-93
2022/11/19 11:30:59;;;;;;;8.75;4.95;;;;;;;;;;6219854;23;20087;-95
2022/11/19 11:33:31;;;;;;;6.20;4.60;;;;;;;;;;6221218;23;20004;-93
2022/11/19 11:36:17;;;;;;;13.10;4.88;;;;;;;;;;6221566;22;20534;-94
2022/11/19 11:38:45;;;;;;;5.93;4.68;;;;;;;;;;6221195;23;20020;-94
2022/11/19 11:41:17;;;;;;;6.68;4.57;;;;;;;;;;6219501;23;20030;-94
2022/11/19 11:44:00;;;;;;;7.55;4.57;;;;;;;;;;6221118;23;20040;-94
2022/11/19 11:46:49;;;;;;;10.35;4.72;;;;;;;;;;6220625;23;20031;-95
2022/11/19 11:49:33;;;;;;;7.20;4.78;;;;;;;;;;6201752;23;20013;-96
2022/11/19 11:52:02;;;;;;;8.65;4.25;;;;;;;;;;6220222;23;20004;-95
2022/11/19 11:54:29;;;;;;;6.78;4.53;;;;;;;;;;6220527;23;20008;-94
2022/11/19 11:57:07;;;;;;;12.23;5.55;;;;;;;;;;6219026;23;20008;-93
2022/11/19 11:59:33;;;;;;;6.60;4.40;;;;;;;;;;6221073;23;20008;-94
2022/11/19 12:02:06;;;;;;;7.50;4.20;;;;;;;;;;6195279;23;20035;-95
2022/11/19 12:04:32;;;;;;;5.90;4.43;;;;;;;;;;6220492;23;20288;-95
2022/11/19 12:07:25;;;;;;;5.68;3.92;;;;;;;;;;6220160;23;20011;-94
2022/11/19 12:10:10;;;;;;;7.53;4.60;;;;;;;;;;6219724;23;20436;-96
2022/11/19 12:12:53;;;;;;;8.98;4.38;;;;;;;;;;6218711;23;20005;-95
2022/11/19 12:15:39;;;;;;;5.72;4.15;;;;;;;;;;6219765;23;20015;-94
2022/11/19 12:18:20;;;;;;;6.50;3.78;;;;;;;;;;6221227;23;20010;-95
2022/11/19 12:20:56;;;;;;;7.50;4.50;;;;;;;;;;6219957;23;20004;-95
2022/11/19 12:23:33;;;;;;;7.47;4.50;;;;;;;;;;6219816;23;20066;-95
2022/11/19 12:26:11;;;;;;;6.20;4.13;;;;;;;;;;6219322;23;20000;-95
2022/11/19 12:29:02;;;;;;;7.97;4.45;;;;;;;;;;6220510;23;20491;-94
2022/11/19 12:31:38;;;;;;;7.95;4.18;;;;;;;;;;6222857;23;20000;-94
2022/11/19 12:34:11;;;;;;;5.85;4.10;;;;;;;;;;6220981;23;20004;-95
2022/11/19 12:36:37;;;;;;;6.82;3.53;;;;;;;;;;6221431;22;20050;-95
2022/11/19 12:39:12;;;;;;;8.07;4.35;;;;;;;;;;6220574;23;20336;-95
2022/11/19 12:41:56;;;;;;;7.27;3.87;;;;;;;;;;6222466;23;20012;-94
2022/11/19 12:44:32;;;;;;;6.25;3.33;;;;;;;;;;6225482;23;20003;-94
2022/11/19 12:46:58;;;;;;;;;;;;;;;;;;6227809;23;20008;-94
2022/11/19 12:49:24;;;;;;;6.45;4.28;;;;;;;;;;6230577;23;19982;-93
2022/11/19 12:52:08;;;;;;;5.72;3.47;;;;;;;;;;6232160;23;20027;-95
2022/11/19 12:54:53;;;;;;;8.02;3.63;;;;;;;;;;6233255;23;20008;-94
2022/11/19 12:57:22;;;;;;;5.82;3.63;;;;;;;;;;6229867;23;20439;-93
2022/11/19 13:00:07;;;;;;;6.40;4.20;;;;;;;;;;6229399;23;20005;-96
2022/11/19 13:03:06;;;;;;;5.00;3.75;;;;;;;;;;6229315;23;20091;-93
2022/11/19 13:05:41;;;;;;;7.57;3.60;;;;;;;;;;6158248;23;20004;-95
2022/11/19 13:08:18;;;;;;;6.93;4.30;;;;;;;;;;6220284;23;20012;-94
2022/11/19 13:10:49;;;;;;;7.82;3.33;;;;;;;;;;6221235;23;20008;-95
2022/11/19 13:13:21;;;;;;;6.53;3.55;;;;;;;;;;6220172;23;20388;-94
2022/11/19 13:15:57;;;;;;;6.13;3.90;;;;;;;;;;6219458;23;20004;-96
2022/11/19 13:18:23;;;;;;;;;;;;;;;;;;6220162;23;20004;-96
2022/11/19 13:20:53;;;;;;;7.97;3.75;;;;;;;;;;6219297;23;19903;-95
2022/11/19 13:23:26;;;;;;;6.90;4.22;;;;;;;;;;6219061;23;20087;-93
2022/11/19 13:26:03;;;;;;;6.60;4.60;;;;;;;;;;6218102;23;20087;-95
2022/11/19 13:28:36;;;;;;;5.78;4.22;;;;;;;;;;6217251;23;20007;-96
2022/11/19 13:31:05;;;;;;;7.38;4.13;;;;;;;;;;6218659;23;20008;-94
2022/11/19 13:33:51;;;;;;;8.38;4.60;;;;;;;;;;6216959;23;20034;-95
2022/11/19 13:36:19;;;;;;;8.02;4.47;;;;;;;;;;6217661;22;20038;-95
2022/11/19 13:38:55;;;;;;;8.05;4.32;;;;;;;;;;6217192;23;20093;-95
2022/11/19 13:41:21;;;;;;;9.02;4.80;;;;;;;;;;6217723;23;20039;-94
2022/11/19 13:46:40;;;;;;;5.75;4.05;;;;;;;;;;6222343;23;20074;-94
2022/11/19 13:49:12;;;;;;;6.15;3.70;;;;;;;;;;6219333;23;20099;-94
2022/11/19 13:51:40;;;;;;;6.03;3.95;;;;;;;;;;6221629;23;20015;-94
2022/11/19 13:54:19;;;;;;;7.00;3.75;;;;;;;;;;6221655;23;20008;-94
2022/11/19 13:56:46;;;;;;;7.63;4.00;;;;;;;;;;6221148;23;20445;-94
2022/11/19 13:59:31;;;;;;;4.88;3.80;;;;;;;;;;6222290;23;20012;-95
2022/11/19 14:02:09;;;;;;;6.22;4.00;;;;;;;;;;6222471;23;20012;-95
2022/11/19 14:04:54;;;;;;;12.18;4.15;;;;;;;;;;6222260;23;20043;-94
2022/11/19 14:07:32;;;;;;;7.15;4.15;;;;;;;;;;6222025;23;20087;-94
2022/11/19 14:10:22;;;;;;;6.07;3.97;;;;;;;;;;6221097;23;20035;-94
2022/11/19 14:12:51;;;;;;;7.72;3.90;;;;;;;;;;6220017;23;20004;-95
2022/11/19 14:26:40;;;;;;;8.85;5.15;;;;;;;;;;6244060;23;20042;-95
2022/11/19 14:29:36;;;;;;;8.32;4.13;;;;;;;;;;6220689;23;20042;-93
2022/11/19 14:32:02;;;;;;;6.07;4.07;;;;;;;;;;6115375;23;20006;-94
2022/11/19 14:34:30;;;;;;;9.77;6.07;;;;;;;;;;6221206;23;20396;-94
2022/11/19 14:36:58;;;;;;;8.98;5.78;;;;;;;;;;6221926;22;20043;-94
2022/11/19 14:39:39;;;;;;;8.75;4.20;;;;;;;;;;6220523;23;20031;-95
2022/11/19 14:42:19;;;;;;;8.18;4.65;;;;;;;;;;6219158;23;20000;-94
2022/11/19 14:45:12;;;;;;;8.15;4.55;;;;;;;;;;6221498;23;20107;-95
2022/11/19 14:47:42;;;;;;;7.53;4.43;;;;;;;;;;6215375;23;20004;-95
2022/11/19 14:50:09;;;;;;;9.20;5.10;;;;;;;;;;6196267;23;20011;-95
2022/11/19 14:52:37;;;;;;;10.43;4.68;;;;;;;;;;6220363;23;20030;-94
2022/11/19 14:55:05;;;;;;;11.38;5.78;;;;;;;;;;6219331;23;20415;-93
2022/11/19 14:57:36;;;;;;;10.20;5.13;;;;;;;;;;6221322;23;20420;-95
2022/11/19 15:00:04;;;;;;;8.77;4.60;;;;;;;;;;6220402;23;20012;-94
2022/11/19 15:02:33;;;;;;;8.27;4.72;;;;;;;;;;6221628;23;20035;-93
2022/11/19 15:05:19;;;;;;;8.82;4.80;;;;;;;;;;6221049;23;20004;-95
2022/11/19 15:07:47;;;;;;;7.65;4.82;;;;;;;;;;6218382;23;20325;-93
2022/11/19 15:10:13;;;;;;;10.98;5.47;;;;;;;;;;6219694;23;20022;-94
2022/11/19 15:12:42;;;;;;;12.55;5.25;;;;;;;;;;6215446;23;20082;-93
2022/11/19 15:15:23;;;;;;;10.95;5.63;;;;;;;;;;6219401;23;20336;-94
2022/11/19 15:18:01;;;;;;;14.30;5.30;;;;;;;;;;6219515;23;20058;-94
2022/11/19 15:20:46;;;;;;;9.98;5.18;;;;;;;;;;6219584;23;20011;-93
2022/11/19 15:23:33;;;;;;;7.47;4.28;;;;;;;;;;6220178;23;20107;-94
2022/11/19 15:26:11;;;;;;;9.05;4.82;;;;;;;;;;6198225;23;20329;-95
2022/11/19 15:28:49;;;;;;;11.20;4.78;;;;;;;;;;6219274;23;20006;-94
2022/11/19 15:31:16;;;;;;;14.30;5.50;;;;;;;;;;6220070;23;20004;-94
2022/11/19 15:33:45;;;;;;;8.95;4.97;;;;;;;;;;6220550;23;20008;-94
2022/11/19 15:36:26;;;;;;;12.07;5.65;;;;;;;;;;6220485;23;20015;-95
2022/11/19 15:39:01;;;;;;;9.73;4.85;;;;;;;;;;6219544;23;20031;-93
2022/11/19 15:41:29;;;;;;;7.88;4.45;;;;;;;;;;6218552;23;20016;-94
2022/11/19 15:43:56;;;;;;;11.38;5.82;;;;;;;;;;6220180;23;20032;-93
2022/11/19 15:46:32;;;;;;;12.93;5.57;;;;;;;;;;6195300;23;20086;-93
2022/11/19 15:49:10;;;;;;;15.07;6.25;;;;;;;;;;6220570;23;20023;-94
2022/11/19 15:51:47;;;;;;;11.80;5.55;;;;;;;;;;6220353;23;20016;-95
2022/11/19 15:54:13;;;;;;;11.85;5.75;;;;;;;;;;6218970;23;20003;-95